createdAt,value
2023-05-04T00:00:13.512Z,7.15
2023-05-04T00:02:45.459Z,7.43
2023-05-04T00:05:14.558Z,7.78
2023-05-04T00:07:41.240Z,7.75
2023-05-04T00:10:08.856Z,7.80
2023-05-04T00:12:35.663Z,7.65
2023-05-04T00:15:02.446Z,6.93
2023-05-04T00:17:29.038Z,7.15
2023-05-04T00:19:55.620Z,7.10
2023-05-04T00:22:22.319Z,8.10
2023-05-04T00:24:51.428Z,7.30
2023-05-04T00:27:20.288Z,7.47
2023-05-04T00:29:46.899Z,7.60
2023-05-04T00:32:16.716Z,7.75
2023-05-04T00:34:43.253Z,8.13
2023-05-04T00:37:09.750Z,7.80
2023-05-04T00:39:36.377Z,7.47
2023-05-04T00:42:03.258Z,8.07
2023-05-04T00:44:34.613Z,7.47
2023-05-04T00:47:03.258Z,7.78
2023-05-04T00:49:32.317Z,8.07
2023-05-04T00:52:02.101Z,8.15
2023-05-04T00:54:29.306Z,8.65
2023-05-04T00:56:56.449Z,7.82
2023-05-04T00:59:25.579Z,8.13
2023-05-04T01:01:52.583Z,8.23
2023-05-04T01:04:21.637Z,7.78
2023-05-04T01:07:11.610Z,8.73
2023-05-04T01:10:33.858Z,7.90
2023-05-04T01:13:13.033Z,8.40
2023-05-04T01:15:40.520Z,8.75
2023-05-04T01:18:07.351Z,8.10
2023-05-04T01:20:34.667Z,9.32
2023-05-04T01:23:02.367Z,8.27
2023-05-04T01:25:36.032Z,8.20
2023-05-04T01:28:11.502Z,8.80
2023-05-04T01:30:48.865Z,9.43
2023-05-04T01:33:17.299Z,9.18
2023-05-04T01:35:44.599Z,8.75
2023-05-04T01:38:11.233Z,8.80
2023-05-04T01:40:40.123Z,9.38
2023-05-04T01:43:09.127Z,9.07
2023-05-04T01:45:38.137Z,8.52
2023-05-04T01:48:05.287Z,9.23
2023-05-04T01:50:34.110Z,9.30
2023-05-04T01:53:02.820Z,9.20
2023-05-04T01:55:31.637Z,9.57
2023-05-04T01:57:58.363Z,8.45
2023-05-04T02:00:25.021Z,9.05
2023-05-04T02:02:53.993Z,8.52
2023-05-04T02:05:23.160Z,9.48
2023-05-04T02:07:49.713Z,9.35
2023-05-04T02:10:18.528Z,9.02
2023-05-04T02:12:47.449Z,9.98
2023-05-04T02:15:14.049Z,10.25
2023-05-04T02:17:43.008Z,9.63
2023-05-04T02:20:10.311Z,9.68
2023-05-04T02:22:36.907Z,9.48
2023-05-04T02:25:03.652Z,8.48
2023-05-04T02:27:32.566Z,9.27
2023-05-04T02:29:59.404Z,8.55
2023-05-04T02:32:28.726Z,8.65
2023-05-04T02:34:55.333Z,8.98
2023-05-04T02:37:22.347Z,9.52
2023-05-04T02:39:48.941Z,8.88
2023-05-04T02:42:15.654Z,8.10
2023-05-04T02:44:42.400Z,8.98
2023-05-04T02:47:09.606Z,8.35
2023-05-04T02:49:36.369Z,9.40
2023-05-04T02:52:02.958Z,8.52
2023-05-04T02:54:32.105Z,8.93
2023-05-04T02:56:58.675Z,9.45
2023-05-04T02:59:25.242Z,9.25
2023-05-04T03:01:52.250Z,8.60
2023-05-04T03:04:18.885Z,9.10
2023-05-04T03:06:45.486Z,8.52
2023-05-04T03:09:15.141Z,8.63
2023-05-04T03:11:41.941Z,8.55
2023-05-04T03:14:08.550Z,8.48
2023-05-04T03:16:35.212Z,8.55
2023-05-04T03:19:02.060Z,8.85
2023-05-04T03:21:30.952Z,8.73
2023-05-04T03:23:59.079Z,9.00
2023-05-04T03:26:25.728Z,8.13
2023-05-04T03:28:52.311Z,8.13
2023-05-04T03:31:21.624Z,8.02
2023-05-04T03:33:48.317Z,8.52
2023-05-04T03:36:14.923Z,8.48
2023-05-04T03:38:42.414Z,9.10
2023-05-04T03:41:08.971Z,8.45
2023-05-04T03:43:37.854Z,8.52
2023-05-04T03:46:04.604Z,8.77
2023-05-04T03:48:31.517Z,9.10
2023-05-04T03:51:00.393Z,8.63
2023-05-04T03:53:27.032Z,8.55
2023-05-04T03:55:53.690Z,8.75
2023-05-04T03:58:20.220Z,8.30
2023-05-04T04:00:49.282Z,8.73
2023-05-04T04:03:18.658Z,8.82
2023-05-04T04:05:47.942Z,8.63
2023-05-04T04:08:14.564Z,8.93
2023-05-04T04:10:44.428Z,8.98
2023-05-04T04:13:13.499Z,8.68
2023-05-04T04:15:40.939Z,8.90
2023-05-04T04:18:13.569Z,8.98
2023-05-04T04:20:42.366Z,8.20
2023-05-04T04:23:09.283Z,9.25
2023-05-04T04:25:38.165Z,8.55
2023-05-04T04:28:04.848Z,9.65
2023-05-04T04:30:31.836Z,10.32
2023-05-04T04:32:58.460Z,9.63
2023-05-04T04:35:27.508Z,9.57
2023-05-04T04:37:54.134Z,7.63
2023-05-04T04:40:22.553Z,8.77
2023-05-04T04:42:49.693Z,8.63
2023-05-04T04:45:16.747Z,8.88
2023-05-04T04:47:43.591Z,8.40
2023-05-04T04:50:13.203Z,8.57
2023-05-04T04:52:44.212Z,8.05
2023-05-04T04:55:11.328Z,9.60
2023-05-04T04:57:37.956Z,8.45
2023-05-04T05:00:09.694Z,8.85
2023-05-04T05:02:36.916Z,8.27
2023-05-04T05:05:04.042Z,7.50
2023-05-04T05:07:35.975Z,7.68
2023-05-04T05:10:04.819Z,7.25
2023-05-04T05:12:33.116Z,8.20
2023-05-04T05:15:00.827Z,7.80
2023-05-04T05:17:28.313Z,8.10
2023-05-04T05:19:55.560Z,7.72
2023-05-04T05:22:36.412Z,7.72
2023-05-04T05:25:03.324Z,7.78
2023-05-04T05:27:29.900Z,7.82
2023-05-04T05:29:57.366Z,8.13
2023-05-04T05:32:24.001Z,8.27
2023-05-04T05:34:50.606Z,6.75
2023-05-04T05:37:17.345Z,7.50
2023-05-04T05:39:43.876Z,7.38
2023-05-04T05:42:11.334Z,8.35
2023-05-04T05:44:37.939Z,7.53
2023-05-04T05:47:05.164Z,7.05
2023-05-04T05:49:32.082Z,6.85
2023-05-04T05:52:01.078Z,6.97
2023-05-04T05:54:30.421Z,6.88
2023-05-04T05:56:57.058Z,7.88
2023-05-04T05:59:23.779Z,7.35
2023-05-04T06:01:50.368Z,7.05
2023-05-04T06:04:17.039Z,6.30
2023-05-04T06:06:45.730Z,7.35
2023-05-04T06:09:13.038Z,6.63
2023-05-04T06:11:42.972Z,6.50
2023-05-04T06:14:09.791Z,6.47
2023-05-04T06:16:38.952Z,6.45
2023-05-04T06:19:05.815Z,6.47
2023-05-04T06:21:32.394Z,6.80
2023-05-04T06:23:59.001Z,7.15
2023-05-04T06:26:26.132Z,7.70
2023-05-04T06:28:55.203Z,7.97
2023-05-04T06:31:26.865Z,6.72
2023-05-04T06:33:53.675Z,6.57
2023-05-04T06:36:20.296Z,7.00
2023-05-04T06:38:46.859Z,6.57
2023-05-04T06:41:14.172Z,6.15
2023-05-04T06:43:45.232Z,6.40
2023-05-04T06:46:12.509Z,6.72
2023-05-04T06:48:50.431Z,6.05
2023-05-04T06:51:20.808Z,6.05
2023-05-04T06:53:47.816Z,5.93
2023-05-04T06:56:17.357Z,6.32
2023-05-04T06:58:46.080Z,6.20
2023-05-04T07:01:13.225Z,5.88
2023-05-04T07:03:39.840Z,5.47
2023-05-04T07:06:07.306Z,5.95
2023-05-04T07:08:36.489Z,5.57
2023-05-04T07:11:04.235Z,6.18
2023-05-04T07:13:35.713Z,5.63
2023-05-04T07:17:17.839Z,6.20
2023-05-04T07:19:44.704Z,5.95
2023-05-04T07:22:11.677Z,5.50
2023-05-04T07:24:40.586Z,5.78
2023-05-04T07:27:07.314Z,5.38
2023-05-04T07:29:34.127Z,5.22
2023-05-04T07:32:00.921Z,5.47
2023-05-04T07:34:38.188Z,5.00
2023-05-04T07:37:16.765Z,5.55
2023-05-04T07:39:43.848Z,5.18
2023-05-04T07:42:12.125Z,4.85
2023-05-04T07:44:39.201Z,5.28
2023-05-04T07:47:06.776Z,5.20
2023-05-04T07:49:34.452Z,5.90
2023-05-04T07:52:04.382Z,5.75
2023-05-04T07:54:31.348Z,6.32
2023-05-04T07:56:58.022Z,5.13
2023-05-04T07:59:24.779Z,5.70
2023-05-04T08:01:51.808Z,5.20
2023-05-04T08:04:18.665Z,5.63
2023-05-04T08:06:47.126Z,5.10
2023-05-04T08:09:14.063Z,4.55
2023-05-04T08:11:43.777Z,5.28
2023-05-04T08:14:10.856Z,4.97
2023-05-04T08:16:40.253Z,5.93
2023-05-04T08:19:07.223Z,4.60
2023-05-04T08:21:34.159Z,4.65
2023-05-04T08:24:01.499Z,5.18
2023-05-04T08:26:28.451Z,5.30
2023-05-04T08:29:06.189Z,4.82
2023-05-04T08:31:34.218Z,5.28
2023-05-04T08:34:01.984Z,5.18
2023-05-04T08:36:29.852Z,4.88
2023-05-04T08:38:57.141Z,5.07
2023-05-04T08:41:26.319Z,5.88
2023-05-04T08:43:53.649Z,5.53
2023-05-04T08:46:20.507Z,5.80
2023-05-04T08:48:49.576Z,5.70
2023-05-04T08:51:16.377Z,5.80
2023-05-04T08:53:46.689Z,5.97
2023-05-04T08:56:14.961Z,5.60
2023-05-04T08:58:50.231Z,5.70
2023-05-04T09:01:20.034Z,5.82
2023-05-04T09:03:47.754Z,5.60
2023-05-04T09:06:15.275Z,5.55
2023-05-04T09:08:42.897Z,5.38
2023-05-04T09:11:09.974Z,5.38
2023-05-04T09:13:37.168Z,5.85
2023-05-04T09:16:04.358Z,5.60
2023-05-04T09:18:41.387Z,6.53
2023-05-04T09:21:08.357Z,6.03
2023-05-04T09:23:55.335Z,5.40
2023-05-04T09:26:31.512Z,6.05
2023-05-04T09:29:10.160Z,5.00
2023-05-04T09:31:50.162Z,5.90
2023-05-04T09:34:18.548Z,5.85
2023-05-04T09:36:45.694Z,5.97
2023-05-04T09:39:13.419Z,5.88
2023-05-04T09:41:42.308Z,5.82
2023-05-04T09:44:20.016Z,5.78
2023-05-04T09:46:58.216Z,5.65
2023-05-04T09:49:39.059Z,6.13
2023-05-04T09:52:07.142Z,5.78
2023-05-04T09:54:39.841Z,6.30
2023-05-04T09:57:20.322Z,6.22
2023-05-04T09:59:47.428Z,6.28
2023-05-04T10:02:22.414Z,6.20
2023-05-04T10:04:57.715Z,6.22
2023-05-04T10:07:25.054Z,6.22
2023-05-04T10:10:00.063Z,5.78
2023-05-04T10:12:26.936Z,6.57
2023-05-04T10:14:53.946Z,7.17
2023-05-04T10:17:45.411Z,6.45
2023-05-04T10:20:37.542Z,6.03
2023-05-04T10:23:35.403Z,6.13
2023-05-04T10:26:07.991Z,6.15
2023-05-04T10:28:40.459Z,6.63
2023-05-04T10:31:07.548Z,6.57
2023-05-04T10:33:42.062Z,6.70
2023-05-04T10:36:10.471Z,7.07
2023-05-04T10:38:39.709Z,7.35
2023-05-04T10:41:23.069Z,7.68
2023-05-04T10:43:53.228Z,6.63
2023-05-04T10:46:23.983Z,6.63
2023-05-04T10:48:51.041Z,7.35
2023-05-04T10:51:22.956Z,6.75
2023-05-04T10:53:50.417Z,7.30
2023-05-04T10:56:35.785Z,6.65
2023-05-04T10:59:10.314Z,6.60
2023-05-04T11:01:47.468Z,6.88
2023-05-04T11:04:25.979Z,6.07
2023-05-04T11:07:08.808Z,6.50
2023-05-04T11:09:41.006Z,6.63
2023-05-04T11:12:10.685Z,6.85
2023-05-04T11:14:42.783Z,6.18
2023-05-04T11:17:26.843Z,5.70
2023-05-04T11:19:54.753Z,5.75
2023-05-04T11:22:24.329Z,4.90
2023-05-04T11:24:51.363Z,5.82
2023-05-04T11:27:26.315Z,5.80
2023-05-04T11:30:04.626Z,5.40
2023-05-04T11:32:43.232Z,6.03
2023-05-04T11:35:18.870Z,5.10
2023-05-04T11:37:47.588Z,5.57
2023-05-04T11:40:19.460Z,5.45
2023-05-04T11:42:47.103Z,5.43
2023-05-04T11:45:17.641Z,5.35
2023-05-04T11:47:45.769Z,5.55
2023-05-04T11:50:14.646Z,4.90
2023-05-04T11:52:44.282Z,4.93
2023-05-04T11:55:13.540Z,4.38
2023-05-04T11:57:43.162Z,4.65
2023-05-04T12:00:12.954Z,6.30
2023-05-04T12:02:40.198Z,5.35
2023-05-04T12:05:15.648Z,4.95
2023-05-04T12:07:42.866Z,5.45
2023-05-04T12:10:10.495Z,6.07
2023-05-04T12:12:39.804Z,6.03
2023-05-04T12:15:08.139Z,6.00
2023-05-04T12:17:44.698Z,6.22
2023-05-04T12:20:25.585Z,6.00
2023-05-04T12:22:57.272Z,5.70
2023-05-04T12:25:29.743Z,5.93
2023-05-04T12:30:44.651Z,5.25
2023-05-04T12:33:11.593Z,4.43
2023-05-04T12:35:38.429Z,4.40
2023-05-04T12:38:05.446Z,4.15
2023-05-04T12:40:37.082Z,4.25
2023-05-04T12:43:06.370Z,3.80
2023-05-04T12:45:44.239Z,4.47
2023-05-04T12:48:12.195Z,4.32
2023-05-04T12:50:38.950Z,4.75
2023-05-04T12:53:07.653Z,3.75
2023-05-04T12:55:34.406Z,3.70
2023-05-04T12:58:01.498Z,3.83
2023-05-04T13:00:28.921Z,4.68
2023-05-04T13:02:55.891Z,4.72
2023-05-04T13:05:23.399Z,4.57
2023-05-04T13:07:50.276Z,4.57
2023-05-04T13:10:17.096Z,5.18
2023-05-04T13:12:46.108Z,4.93
2023-05-04T13:15:15.393Z,4.88
2023-05-04T13:17:45.391Z,4.25
2023-05-04T13:20:13.534Z,4.28
2023-05-04T13:22:40.765Z,5.03
2023-05-04T13:25:08.608Z,4.90
2023-05-04T13:27:35.609Z,4.60
2023-05-04T13:30:04.020Z,5.00
2023-05-04T13:32:31.291Z,4.00
2023-05-04T13:34:58.127Z,5.15
2023-05-04T13:37:24.796Z,4.50
2023-05-04T13:39:51.345Z,4.40
2023-05-04T13:42:20.552Z,4.68
2023-05-04T13:44:48.297Z,3.90
2023-05-04T13:47:18.788Z,3.90
2023-05-04T13:49:45.653Z,4.25
2023-05-04T13:52:12.644Z,4.50
2023-05-04T13:54:40.775Z,3.88
2023-05-04T13:57:07.740Z,4.30
2023-05-04T13:59:34.507Z,4.30
2023-05-04T14:02:01.395Z,4.38
2023-05-04T14:04:30.368Z,4.32
2023-05-04T14:06:57.745Z,4.88
2023-05-04T14:09:30.202Z,4.65
2023-05-04T14:11:56.884Z,4.53
2023-05-04T14:14:23.605Z,4.88
2023-05-04T14:16:50.336Z,6.15
2023-05-04T14:19:17.125Z,5.68
2023-05-04T14:21:43.658Z,4.65
2023-05-04T14:24:10.230Z,4.53
2023-05-04T14:26:37.035Z,4.28
2023-05-04T14:29:06.064Z,3.85
2023-05-04T14:31:32.756Z,3.97
2023-05-04T14:33:59.406Z,4.00
2023-05-04T14:36:26.274Z,4.15
2023-05-04T14:38:53.104Z,5.50
2023-05-04T14:41:20.076Z,4.72
2023-05-04T14:43:50.307Z,5.05
2023-05-04T14:46:17.240Z,5.53
2023-05-04T14:48:43.798Z,5.15
2023-05-04T14:51:12.751Z,4.90
2023-05-04T14:53:40.940Z,4.80
2023-05-04T14:56:09.793Z,4.78
2023-05-04T14:58:36.438Z,4.82
2023-05-04T15:01:06.579Z,4.57
2023-05-04T15:03:33.902Z,4.88
2023-05-04T15:06:03.949Z,4.53
2023-05-04T15:08:30.908Z,4.85
2023-05-04T15:10:58.858Z,4.55
2023-05-04T15:13:26.463Z,4.70
2023-05-04T15:15:53.182Z,4.43
2023-05-04T15:18:24.122Z,4.03
2023-05-04T15:20:50.917Z,4.00
2023-05-04T15:23:21.295Z,3.65
2023-05-04T15:25:50.096Z,3.10
2023-05-04T15:28:18.106Z,4.20
2023-05-04T15:30:46.958Z,3.40
2023-05-04T15:33:13.610Z,3.08
2023-05-04T15:35:40.321Z,2.78
2023-05-04T15:38:07.104Z,2.88
2023-05-04T15:40:33.780Z,2.60
2023-05-04T15:43:00.373Z,2.67
2023-05-04T15:45:29.277Z,2.60
2023-05-04T15:47:58.434Z,3.15
2023-05-04T15:50:25.481Z,2.80
2023-05-04T15:52:53.103Z,5.00
2023-05-04T15:55:26.070Z,2.95
2023-05-04T15:57:54.186Z,3.50
2023-05-04T16:00:25.613Z,2.42
2023-05-04T16:02:55.287Z,2.85
2023-05-04T16:05:22.169Z,2.70
2023-05-04T16:07:51.400Z,2.58
2023-05-04T16:10:18.317Z,2.50
2023-05-04T16:12:45.121Z,2.22
2023-05-04T16:15:14.560Z,11.40
2023-05-04T16:17:41.555Z,10.65
2023-05-04T16:20:09.039Z,2.80
2023-05-04T16:22:35.930Z,2.83
2023-05-04T16:25:02.824Z,2.22
2023-05-04T16:27:29.536Z,3.58
2023-05-04T16:29:56.299Z,2.17
2023-05-04T16:32:23.446Z,2.70
2023-05-04T16:34:50.116Z,2.60
2023-05-04T16:37:18.509Z,2.17
2023-05-04T16:39:47.225Z,2.30
2023-05-04T16:42:13.861Z,2.28
2023-05-04T16:44:41.324Z,3.03
2023-05-04T16:47:08.299Z,2.60
2023-05-04T16:49:35.221Z,2.28
2023-05-04T16:52:03.615Z,1.90
2023-05-04T16:54:31.951Z,2.15
2023-05-04T16:56:59.545Z,2.20
2023-05-04T16:59:26.976Z,2.33
2023-05-04T17:01:53.746Z,2.15
2023-05-04T17:04:20.517Z,2.03
2023-05-04T17:06:48.595Z,2.05
2023-05-04T17:09:15.240Z,2.22
2023-05-04T17:11:42.025Z,2.45
2023-05-04T17:14:08.675Z,2.17
2023-05-04T17:16:35.510Z,2.30
2023-05-04T17:19:02.162Z,2.30
2023-05-04T17:21:28.742Z,2.10
2023-05-04T17:23:55.789Z,2.10
2023-05-04T17:26:22.637Z,2.22
2023-05-04T17:28:49.409Z,5.05
2023-05-04T17:31:15.995Z,2.35
2023-05-04T17:33:42.775Z,4.03
2023-05-04T17:36:12.435Z,6.05
2023-05-04T17:38:40.241Z,3.53
2023-05-04T17:41:09.774Z,2.50
2023-05-04T17:43:37.017Z,2.08
2023-05-04T17:46:04.449Z,2.17
2023-05-04T17:48:31.438Z,2.17
2023-05-04T17:50:58.972Z,2.10
2023-05-04T17:53:29.444Z,2.28
2023-05-04T17:55:56.414Z,2.20
2023-05-04T17:58:23.157Z,2.20
2023-05-04T18:00:52.098Z,2.20
2023-05-04T18:03:20.069Z,2.30
2023-05-04T18:05:46.896Z,2.75
2023-05-04T18:08:14.207Z,2.42
2023-05-04T18:10:41.249Z,2.70
2023-05-04T18:13:10.305Z,2.50
2023-05-04T18:15:37.228Z,2.28
2023-05-04T18:18:04.164Z,2.42
2023-05-04T18:20:30.932Z,2.47
2023-05-04T18:22:58.372Z,2.75
2023-05-04T18:25:25.429Z,2.67
2023-05-04T18:27:55.264Z,2.72
2023-05-04T18:30:22.302Z,2.08
2023-05-04T18:32:49.111Z,2.47
2023-05-04T18:35:17.286Z,2.45
2023-05-04T18:37:44.096Z,2.40
2023-05-04T18:40:11.509Z,2.70
2023-05-04T18:42:38.156Z,2.40
2023-05-04T18:45:05.362Z,2.63
2023-05-04T18:47:32.752Z,2.85
2023-05-04T18:50:00.671Z,3.10
2023-05-04T18:52:56.872Z,3.00
2023-05-04T18:55:23.682Z,2.78
2023-05-04T18:57:50.862Z,2.72
2023-05-04T19:00:17.683Z,2.45
2023-05-04T19:02:44.432Z,2.75
2023-05-04T19:05:13.716Z,3.00
2023-05-04T19:07:41.173Z,3.67
2023-05-04T19:10:09.070Z,3.17
2023-05-04T19:12:36.391Z,3.50
2023-05-04T19:15:03.189Z,3.63
2023-05-04T19:17:29.916Z,3.85
2023-05-04T19:20:00.277Z,5.13
2023-05-04T19:22:29.326Z,3.80
2023-05-04T19:24:58.420Z,4.00
2023-05-04T19:27:25.060Z,4.20
2023-05-04T19:29:51.630Z,4.80
2023-05-04T19:32:24.751Z,3.97
2023-05-04T19:34:52.424Z,5.65
2023-05-04T19:37:19.496Z,4.88
2023-05-04T19:39:46.355Z,5.30
2023-05-04T19:42:12.924Z,5.18
2023-05-04T19:44:39.576Z,4.90
2023-05-04T19:47:10.696Z,5.13
2023-05-04T19:49:37.355Z,5.75
2023-05-04T19:52:07.097Z,4.93
2023-05-04T19:54:34.029Z,5.00
2023-05-04T19:57:03.378Z,4.97
2023-05-04T19:59:30.029Z,4.97
2023-05-04T20:01:56.722Z,5.10
2023-05-04T20:04:27.880Z,4.50
2023-05-04T20:06:57.143Z,5.82
2023-05-04T20:09:26.210Z,5.05
2023-05-04T20:11:52.750Z,6.03
2023-05-04T20:14:19.381Z,5.35
2023-05-04T20:16:46.661Z,6.93
2023-05-04T20:19:15.871Z,6.60
2023-05-04T20:21:42.476Z,6.75
2023-05-04T20:24:12.468Z,6.90
2023-05-04T20:26:39.097Z,7.07
2023-05-04T20:29:05.870Z,7.22
2023-05-04T20:31:36.055Z,7.30
2023-05-04T20:34:05.465Z,6.78
2023-05-04T20:36:36.158Z,6.97
2023-05-04T20:39:07.765Z,7.07
2023-05-04T20:41:34.913Z,8.05
2023-05-04T20:44:02.254Z,7.13
2023-05-04T20:46:29.322Z,7.60
2023-05-04T20:48:57.059Z,7.72
2023-05-04T20:51:24.042Z,7.38
2023-05-04T20:53:51.229Z,7.07
2023-05-04T20:56:18.202Z,7.38
2023-05-04T20:58:47.914Z,6.88
2023-05-04T21:01:15.409Z,7.43
2023-05-04T21:03:42.481Z,7.07
2023-05-04T21:06:09.869Z,6.70
2023-05-04T21:08:39.451Z,6.93
2023-05-04T21:11:06.700Z,6.40
2023-05-04T21:13:33.685Z,6.80
2023-05-04T21:16:00.552Z,6.53
2023-05-04T21:18:30.262Z,6.20
2023-05-04T21:20:57.214Z,6.68
2023-05-04T21:23:25.211Z,6.90
2023-05-04T21:26:03.849Z,7.57
2023-05-04T21:28:32.976Z,6.13
2023-05-04T21:30:59.898Z,6.50
2023-05-04T21:33:30.411Z,6.32
2023-05-04T21:36:00.597Z,6.75
2023-05-04T21:38:28.380Z,6.55
2023-05-04T21:40:55.147Z,7.30
2023-05-04T21:43:21.936Z,7.20
2023-05-04T21:45:48.730Z,6.85
2023-05-04T21:48:15.650Z,7.10
2023-05-04T21:50:42.709Z,7.07
2023-05-04T21:53:09.646Z,6.65
2023-05-04T21:55:36.713Z,6.60
2023-05-04T21:58:03.652Z,6.07
2023-05-04T22:00:30.978Z,6.53
2023-05-04T22:02:58.240Z,6.22
2023-05-04T22:05:25.106Z,6.07
2023-05-04T22:07:52.146Z,7.40
2023-05-04T22:10:22.081Z,6.97
2023-05-04T22:12:49.323Z,6.68
2023-05-04T22:15:16.704Z,7.10
2023-05-04T22:17:46.154Z,6.43
2023-05-04T22:20:13.710Z,6.30
2023-05-04T22:22:40.962Z,6.30
2023-05-04T22:25:08.248Z,7.15
2023-05-04T22:27:35.376Z,6.88
2023-05-04T22:30:02.724Z,6.47
2023-05-04T22:32:30.230Z,6.63
2023-05-04T22:34:59.935Z,7.05
2023-05-04T22:37:27.316Z,6.55
2023-05-04T22:39:54.404Z,6.38
2023-05-04T22:42:26.168Z,6.68
2023-05-04T22:44:55.767Z,6.03
2023-05-04T22:47:26.025Z,5.68
2023-05-04T22:49:58.920Z,6.45
2023-05-04T22:52:28.094Z,6.07
2023-05-04T22:54:55.169Z,6.20
2023-05-04T22:57:23.076Z,6.38
2023-05-04T22:59:53.112Z,5.68
2023-05-04T23:02:20.061Z,5.60
2023-05-04T23:04:47.030Z,6.78
2023-05-04T23:07:14.741Z,6.63
2023-05-04T23:09:43.502Z,6.55
2023-05-04T23:12:10.433Z,6.55
2023-05-04T23:14:37.666Z,6.07
2023-05-04T23:17:07.290Z,6.80
2023-05-04T23:19:38.075Z,6.45
2023-05-04T23:22:05.020Z,6.53
2023-05-04T23:24:32.189Z,6.70
2023-05-04T23:26:59.454Z,6.90
2023-05-04T23:29:26.794Z,6.68
2023-05-04T23:31:54.064Z,6.65
2023-05-04T23:34:21.353Z,7.20
2023-05-04T23:36:49.673Z,6.22
2023-05-04T23:39:17.116Z,6.72
2023-05-04T23:41:44.588Z,6.72
2023-05-04T23:44:11.844Z,7.57
2023-05-04T23:46:39.180Z,7.03
2023-05-04T23:49:08.908Z,7.15
2023-05-04T23:51:36.303Z,7.60
2023-05-04T23:54:03.393Z,8.60
2023-05-04T23:56:31.794Z,8.07
2023-05-04T23:58:59.094Z,7.65
